Time;durP1;ratioP1;P1;durP2;ratioP2;P2;SDS_P1;SDS_P2;PMS_P1;PMS_P2;Temp;Humidity;BMP_temperature;BMP_pressure;BME280_temperature;BME280_humidity;BME280_pressure;Samples;Min_cycle;Max_cycle;Signal;HPM_P1;HPM_P2
2022/01/30 00:01:30;;;;;;;1.48;1.00;;;;;;;16.66;32.59;100773.28;4129300;28;20047;-45
2022/01/30 00:03:32;;;;;;;0.65;0.63;;;;;;;16.63;32.26;100779.34;4129634;28;20039;-48
2022/01/30 00:05:34;;;;;;;1.80;0.90;;;;;;;16.67;31.97;100777.72;4129475;28;20375;-46
2022/01/30 00:07:36;;;;;;;1.25;0.90;;;;;;;16.68;32.33;100782.19;4129400;28;20089;-44
2022/01/30 00:09:37;;;;;;;1.38;0.90;;;;;;;16.67;32.11;100786.00;4129417;28;20047;-49
2022/01/30 00:11:41;;;;;;;1.58;0.98;;;;;;;16.70;31.89;100795.72;4128112;28;20093;-44
2022/01/30 00:13:43;;;;;;;1.88;1.00;;;;;;;16.70;32.23;100796.56;4129431;28;20051;-45
2022/01/30 00:15:51;;;;;;;0.70;0.70;;;;;;;16.72;32.24;100799.94;4128948;28;20039;-46
2022/01/30 00:18:07;;;;;;;1.15;0.90;;;;;;;16.72;31.98;100805.47;4129532;28;20054;-46
2022/01/30 00:20:15;;;;;;;1.55;0.93;;;;;;;16.72;32.11;100799.94;4129045;28;20117;-44
2022/01/30 00:26:42;;;;;;;1.23;0.90;;;;;;;16.76;31.77;100819.59;4118994;28;20038;-45
2022/01/30 00:28:44;;;;;;;1.30;0.93;;;;;;;16.79;32.02;100821.03;4128833;28;20110;-45
2022/01/30 00:30:46;;;;;;;0.85;0.80;;;;;;;16.76;31.86;100814.91;4128664;28;20504;-45
2022/01/30 00:32:47;;;;;;;1.08;0.60;;;;;;;16.77;31.71;100826.81;4129531;28;20039;-43
2022/01/30 00:34:48;;;;;;;1.20;0.65;;;;;;;16.77;31.69;100830.41;4129675;28;20046;-45
2022/01/30 00:36:50;;;;;;;1.10;0.80;;;;;;;16.79;31.95;100832.09;4128750;28;20039;-44
2022/01/30 00:38:51;;;;;;;1.15;0.70;;;;;;;16.79;32.13;100843.13;4128938;28;20482;-44
2022/01/30 00:40:53;;;;;;;1.27;0.88;;;;;;;16.76;31.96;100839.78;4128292;28;20126;-44
2022/01/30 00:42:55;;;;;;;1.25;0.90;;;;;;;16.74;31.69;100847.50;4119213;28;20042;-45
2022/01/30 00:44:56;;;;;;;1.65;1.25;;;;;;;16.79;31.94;100854.19;4117773;28;20491;-43
2022/01/30 00:46:58;;;;;;;1.17;0.90;;;;;;;16.77;31.77;100852.53;4117732;28;20656;-44
2022/01/30 00:49:00;;;;;;;1.10;0.80;;;;;;;16.76;32.02;100861.88;4117615;28;20046;-46
2022/01/30 00:51:01;;;;;;;1.23;1.00;;;;;;;16.75;31.51;100871.25;4116202;28;20046;-42
2022/01/30 00:53:04;;;;;;;1.10;0.60;;;;;;;16.75;31.93;100876.78;4118069;28;20047;-44
2022/01/30 00:55:06;;;;;;;1.20;0.80;;;;;;;16.77;31.57;100885.69;4117930;28;20046;-45
2022/01/30 00:57:07;;;;;;;1.10;0.75;;;;;;;16.76;32.03;100878.47;4117943;28;20034;-46
2022/01/30 00:59:08;;;;;;;1.25;0.73;;;;;;;16.77;31.95;100882.09;4117570;28;20094;-46
2022/01/30 01:01:13;;;;;;;1.10;0.80;;;;;;;16.76;31.86;100889.50;4117992;28;20438;-44
2022/01/30 01:03:14;;;;;;;0.82;0.77;;;;;;;16.76;31.87;100892.28;4117515;28;20082;-48
2022/01/30 01:05:17;;;;;;;1.05;0.77;;;;;;;16.75;31.77;100882.31;4117771;28;20039;-45
2022/01/30 01:07:20;;;;;;;1.45;0.90;;;;;;;16.74;31.63;100891.72;4117732;28;20038;-46
2022/01/30 01:09:29;;;;;;;1.30;0.80;;;;;;;16.77;31.79;100891.22;4117163;28;20549;-43
2022/01/30 01:23:26;;;;;;;1.40;0.73;;;;;;;16.74;31.66;100913.81;4117697;28;20094;-43
2022/01/30 01:25:29;;;;;;;1.58;0.80;;;;;;;16.74;31.26;100924.88;4117456;28;20117;-46
2022/01/30 01:27:31;;;;;;;1.73;0.80;;;;;;;16.72;31.66;100918.78;4117556;28;20039;-49
2022/01/30 01:29:32;;;;;;;1.70;1.00;;;;;;;16.73;31.96;100945.31;4117150;28;20102;-47
2022/01/30 01:31:34;;;;;;;1.65;0.70;;;;;;;16.72;31.62;100931.72;4117422;28;20043;-45
2022/01/30 01:35:38;;;;;;;1.10;0.75;;;;;;;16.71;31.74;100930.84;4117652;28;20089;-46
2022/01/30 01:37:39;;;;;;;1.00;0.80;;;;;;;16.72;32.00;100949.16;4117348;28;20046;-46
2022/01/30 01:39:41;;;;;;;1.05;0.70;;;;;;;16.72;31.64;100960.22;4117038;28;20101;-46
2022/01/30 01:41:42;;;;;;;0.77;0.55;;;;;;;16.68;31.86;100953.50;4117244;28;20077;-44
2022/01/30 01:43:44;;;;;;;0.90;0.75;;;;;;;16.70;31.88;100956.00;4115930;28;20034;-45
2022/01/30 01:45:48;;;;;;;1.52;0.80;;;;;;;16.71;31.92;100964.00;4117278;28;20078;-48
2022/01/30 01:47:52;;;;;;;2.05;0.60;;;;;;;16.71;31.77;100964.00;4117326;28;20070;-49
2022/01/30 01:49:54;;;;;;;0.90;0.67;;;;;;;16.67;31.79;100965.59;4116860;28;20186;-48
2022/01/30 01:54:17;;;;;;;1.17;0.50;;;;;;;16.68;31.60;100980.28;4116150;28;20078;-46
2022/01/30 01:56:19;;;;;;;0.90;0.70;;;;;;;16.68;32.05;100986.66;4116692;28;20046;-46
2022/01/30 01:58:27;;;;;;;1.60;0.85;;;;;;;16.65;31.67;100975.25;4116564;28;20039;-44
2022/01/30 02:00:28;;;;;;;0.82;0.60;;;;;;;16.67;31.98;100990.47;4116679;28;20043;-45
2022/01/30 02:02:33;;;;;;;1.35;0.88;;;;;;;16.66;32.06;100994.31;4116436;28;20038;-47
2022/01/30 02:04:34;;;;;;;1.55;0.90;;;;;;;16.62;31.89;100993.16;4116608;28;20039;-45
2022/01/30 02:06:36;;;;;;;0.95;0.90;;;;;;;16.64;32.19;101013.09;4116485;28;20466;-44
2022/01/30 02:08:42;;;;;;;1.40;0.80;;;;;;;16.64;32.15;101013.09;4117107;28;20422;-44
2022/01/30 02:13:10;;;;;;;0.82;0.70;;;;;;;16.64;32.11;101023.31;4116959;28;20027;-45
2022/01/30 02:26:44;;;;;;;1.10;0.90;;;;;;;16.59;31.79;101057.22;4116809;28;20023;-43
2022/01/30 02:28:53;;;;;;;1.90;0.85;;;;;;;16.60;31.85;101067.19;4116857;28;20043;-44
2022/01/30 02:33:02;;;;;;;1.52;1.00;;;;;;;16.60;31.75;101077.41;4116416;28;20515;-45
2022/01/30 02:35:04;;;;;;;1.10;0.60;;;;;;;16.58;32.18;101072.09;4116241;28;20042;-43
2022/01/30 02:37:06;;;;;;;1.98;1.00;;;;;;;16.55;31.71;101077.31;4116797;28;20027;-44
2022/01/30 02:39:07;;;;;;;1.15;0.70;;;;;;;16.57;32.06;101080.63;4116016;28;20097;-47
2022/01/30 02:41:09;;;;;;;1.45;0.85;;;;;;;16.56;31.87;101088.09;4116424;28;20071;-43
2022/01/30 02:43:13;;;;;;;1.05;0.80;;;;;;;16.55;32.00;101080.91;4116390;28;20364;-44
2022/01/30 02:45:16;;;;;;;1.90;0.68;;;;;;;16.56;31.93;101101.06;4116252;28;20098;-44
2022/01/30 02:47:25;;;;;;;0.98;0.80;;;;;;;16.55;31.73;101110.44;4116178;28;20093;-47
2022/01/30 02:49:41;;;;;;;0.82;0.75;;;;;;;16.54;31.83;101104.09;4115692;28;20046;-44
2022/01/30 02:51:48;;;;;;;;;;;;;;;16.52;31.93;101117.31;4114799;28;20109;-45
2022/01/30 02:54:03;;;;;;;1.15;0.77;;;;;;;16.51;32.03;101105.41;4116511;28;19976;-45
2022/01/30 02:56:04;;;;;;;1.67;0.80;;;;;;;16.56;31.75;101117.66;4115814;28;20046;-43
2022/01/30 02:58:06;;;;;;;1.23;0.60;;;;;;;16.51;31.77;101121.16;4116493;28;20435;-44
2022/01/30 03:00:10;;;;;;;1.63;0.70;;;;;;;16.53;31.63;101117.03;4115956;28;20034;-48
2022/01/30 03:02:11;;;;;;;0.73;0.70;;;;;;;16.47;31.92;101119.97;4116407;28;20023;-47
2022/01/30 03:04:12;;;;;;;1.58;0.90;;;;;;;16.48;31.73;101129.91;4115911;28;20364;-44
2022/01/30 03:06:14;;;;;;;1.38;1.02;;;;;;;16.49;31.50;101120.53;4115358;28;20097;-43
2022/01/30 03:08:15;;;;;;;2.53;0.70;;;;;;;16.49;31.58;101145.41;4115550;28;20428;-45
2022/01/30 03:10:16;;;;;;;0.70;0.70;;;;;;;16.47;31.72;101150.34;4115337;28;20545;-46
2022/01/30 03:12:20;;;;;;;1.05;0.80;;;;;;;16.45;31.96;101152.53;4115947;28;20043;-46
2022/01/30 03:14:22;;;;;;;1.65;0.65;;;;;;;16.45;31.55;101163.59;4116060;28;20034;-44
2022/01/30 03:16:23;;;;;;;1.67;1.13;;;;;;;16.43;32.03;101154.69;4115525;28;20089;-44
2022/01/30 03:18:25;;;;;;;1.00;0.73;;;;;;;16.43;32.04;101161.03;4114210;28;20403;-46
2022/01/30 03:20:26;;;;;;;1.58;0.68;;;;;;;16.44;31.81;101164.63;4115806;28;20479;-45
2022/01/30 03:22:31;;;;;;;0.57;0.57;;;;;;;16.43;31.57;101161.03;4115966;28;20039;-45
2022/01/30 03:24:36;;;;;;;1.50;1.03;;;;;;;16.45;32.01;101163.59;4116149;28;20101;-45
2022/01/30 03:26:40;;;;;;;0.88;0.68;;;;;;;16.44;31.53;101178.44;4115466;28;20105;-48
2022/01/30 03:28:43;;;;;;;0.93;0.80;;;;;;;16.41;31.72;101184.50;4116060;28;20101;-47
2022/01/30 03:30:48;;;;;;;1.02;0.82;;;;;;;16.34;31.52;101170.81;4115408;28;20042;-46
2022/01/30 03:32:50;;;;;;;0.90;0.80;;;;;;;16.41;31.91;101173.44;4115605;28;20043;-48
2022/01/30 03:34:51;;;;;;;1.55;0.98;;;;;;;16.39;31.93;101181.94;4115676;28;20110;-44
2022/01/30 03:36:53;;;;;;;1.17;0.90;;;;;;;16.39;31.57;101173.66;4115691;28;20105;-43
2022/01/30 03:38:54;;;;;;;2.17;0.77;;;;;;;16.38;31.83;101187.72;4115750;28;20434;-48
2022/01/30 03:40:56;;;;;;;1.83;0.90;;;;;;;16.39;31.85;101200.44;4115878;28;20418;-47
2022/01/30 03:42:57;;;;;;;1.00;0.73;;;;;;;16.32;31.72;101183.19;4115698;28;20106;-46
2022/01/30 03:44:59;;;;;;;1.13;0.80;;;;;;;16.38;31.94;101184.97;4115201;28;20047;-44
2022/01/30 03:47:00;;;;;;;0.85;0.65;;;;;;;16.37;31.50;101195.19;4115564;28;20545;-44
2022/01/30 03:49:04;;;;;;;0.90;0.70;;;;;;;16.38;31.63;101185.81;4114876;28;20121;-43
2022/01/30 03:51:06;;;;;;;1.20;0.77;;;;;;;16.31;31.49;101184.25;4115437;28;20043;-48
2022/01/30 03:53:08;;;;;;;0.70;0.70;;;;;;;16.37;31.50;101213.69;4115922;28;20479;-45
2022/01/30 03:55:09;;;;;;;1.05;0.77;;;;;;;16.36;31.59;101209.25;4115603;28;20102;-44
2022/01/30 03:57:13;;;;;;;1.00;0.75;;;;;;;16.36;31.61;101214.75;4115676;28;20097;-43
2022/01/30 03:59:15;;;;;;;1.10;0.90;;;;;;;16.35;31.44;101208.38;4115314;28;20092;-47
2022/01/30 04:01:16;;;;;;;0.77;0.75;;;;;;;16.35;31.50;101229.63;4115195;28;20047;-44
2022/01/30 04:03:18;;;;;;;1.02;0.60;;;;;;;16.34;31.64;101227.97;4115784;28;20035;-44
2022/01/30 04:05:19;;;;;;;1.30;0.70;;;;;;;16.32;31.46;101227.38;4115544;28;20038;-45
2022/01/30 04:07:21;;;;;;;0.75;0.65;;;;;;;16.32;31.45;101224.63;4115197;28;20039;-44
2022/01/30 04:09:23;;;;;;;1.35;0.77;;;;;;;16.34;31.67;101234.31;4115245;28;20427;-46
2022/01/30 04:11:24;;;;;;;1.50;0.93;;;;;;;16.31;31.40;101234.81;4115816;28;20039;-46
2022/01/30 04:13:26;;;;;;;1.17;0.80;;;;;;;16.34;31.49;101241.78;4115690;28;20102;-45
2022/01/30 04:15:28;;;;;;;1.45;0.70;;;;;;;16.29;31.79;101236.97;4115652;28;20034;-44
2022/01/30 04:17:29;;;;;;;1.65;0.85;;;;;;;16.26;31.45;101242.97;4117426;28;20043;-47
2022/01/30 04:19:31;;;;;;;0.70;0.60;;;;;;;16.25;31.52;101244.06;4118654;28;20043;-46
2022/01/30 04:21:33;;;;;;;0.68;0.60;;;;;;;16.30;31.42;101257.13;4118084;28;20042;-45
2022/01/30 04:23:34;;;;;;;1.58;0.70;;;;;;;16.29;31.49;101256.31;4118238;28;20085;-44
2022/01/30 04:25:36;;;;;;;2.03;0.90;;;;;;;16.28;31.26;101262.91;4118740;28;20093;-46
2022/01/30 04:27:40;;;;;;;1.35;0.90;;;;;;;16.24;31.40;101253.44;4118136;28;20046;-43
2022/01/30 04:29:41;;;;;;;0.60;0.60;;;;;;;16.18;31.61;101258.00;4118295;28;20565;-45
2022/01/30 04:31:43;;;;;;;0.80;0.70;;;;;;;16.19;31.50;101272.66;4117364;28;20499;-44
2022/01/30 04:33:45;;;;;;;0.95;0.70;;;;;;;16.14;31.47;101270.63;4118562;28;20446;-47
2022/01/30 04:35:47;;;;;;;1.50;0.80;;;;;;;16.12;31.55;101278.28;4118387;28;20486;-45
2022/01/30 04:38:00;;;;;;;1.60;0.80;;;;;;;16.12;32.13;101270.00;4118431;28;20094;-43
2022/01/30 04:52:21;;;;;;;2.13;0.80;;;;;;;16.18;31.64;101282.84;4106661;28;20097;-47
2022/01/30 04:55:05;;;;;;;1.10;0.70;;;;;;;16.16;31.85;101287.75;4118007;28;20438;-44
2022/01/30 04:56:59;;;;;;;1.38;0.85;;;;;;;16.22;31.64;101286.81;4117885;28;20038;-45
2022/01/30 05:03:56;;;;;;;1.38;0.80;;;;;;;16.30;31.37;101293.03;4117606;28;20086;-44
2022/01/30 05:06:11;;;;;;;1.95;1.00;;;;;;;16.34;31.60;101299.78;4118409;28;20047;-44
2022/01/30 05:08:13;;;;;;;1.52;0.80;;;;;;;16.30;31.50;101287.53;4118451;28;20042;-45
2022/01/30 05:10:14;;;;;;;1.20;0.90;;;;;;;16.32;31.33;101279.84;4116936;28;20039;-43
2022/01/30 05:12:16;;;;;;;0.90;0.70;;;;;;;16.38;31.28;101295.44;4117718;28;20063;-44
2022/01/30 05:14:21;;;;;;;1.05;0.80;;;;;;;16.40;31.34;101293.25;4118095;28;20438;-44
2022/01/30 05:16:23;;;;;;;1.42;0.77;;;;;;;16.42;31.42;101299.41;4118018;28;20043;-42
2022/01/30 05:18:27;;;;;;;1.73;0.88;;;;;;;16.41;31.43;101306.03;4117234;28;20038;-45
2022/01/30 05:20:29;;;;;;;1.15;0.90;;;;;;;16.36;31.13;101297.63;4115774;28;20589;-48
2022/01/30 05:22:31;;;;;;;1.17;0.90;;;;;;;16.45;31.00;101301.69;4117490;28;20039;-48
2022/01/30 05:24:35;;;;;;;2.08;1.00;;;;;;;16.46;31.15;101312.50;4117191;28;20097;-46
2022/01/30 05:26:41;;;;;;;1.83;0.80;;;;;;;16.48;30.96;101312.25;4117646;28;20422;-45
2022/01/30 05:28:43;;;;;;;1.80;0.90;;;;;;;16.48;31.02;101307.56;4117352;28;20757;-48
2022/01/30 05:30:45;;;;;;;1.17;0.82;;;;;;;16.50;31.02;101301.81;4117212;28;20109;-45
2022/01/30 05:32:47;;;;;;;0.80;0.73;;;;;;;16.51;30.80;101303.47;4117390;28;20122;-44
2022/01/30 05:34:49;;;;;;;1.10;0.88;;;;;;;16.53;31.08;101320.63;4116415;28;20094;-44
2022/01/30 05:36:50;;;;;;;1.15;0.98;;;;;;;16.52;30.88;101305.16;4117682;28;20487;-46
2022/01/30 05:38:55;;;;;;;1.42;0.90;;;;;;;16.54;30.88;101316.81;4117655;28;20101;-48
2022/01/30 05:40:57;;;;;;;2.13;1.27;;;;;;;16.55;30.94;101317.66;4117295;28;20078;-50
2022/01/30 05:42:59;;;;;;;1.52;0.68;;;;;;;16.54;31.00;101311.28;4116894;28;20035;-51
2022/01/30 05:45:30;;;;;;;1.33;0.60;;;;;;;16.55;30.67;101315.72;4117144;28;20482;-52
2022/01/30 05:47:34;;;;;;;1.05;0.68;;;;;;;16.53;30.72;101320.63;4116892;28;20039;-43
2022/01/30 05:49:37;;;;;;;1.00;0.80;;;;;;;16.55;30.93;101318.50;4117373;28;20109;-46
2022/01/30 05:51:38;;;;;;;0.80;0.60;;;;;;;16.54;30.94;101322.34;4117388;28;20487;-43
2022/01/30 05:53:39;;;;;;;2.05;1.08;;;;;;;16.57;30.54;101343.94;4117046;28;20434;-45
2022/01/30 05:55:41;;;;;;;1.00;0.77;;;;;;;16.56;30.62;101335.91;4116865;28;20063;-44
2022/01/30 05:57:42;;;;;;;1.38;0.88;;;;;;;16.57;30.46;101343.94;4117323;28;20491;-48
2022/01/30 05:59:44;;;;;;;1.30;0.70;;;;;;;16.56;30.90;101342.25;4116684;28;20038;-46
2022/01/30 06:01:45;;;;;;;1.55;0.70;;;;;;;16.57;30.95;101338.41;4117277;28;20430;-45
2022/01/30 06:03:47;;;;;;;1.15;0.80;;;;;;;16.55;30.92;101340.59;4117287;28;20039;-46
2022/01/30 06:05:49;;;;;;;1.20;0.80;;;;;;;16.55;31.01;101348.88;4117116;28;20459;-47
2022/01/30 06:07:55;;;;;;;1.65;0.82;;;;;;;16.56;30.91;101346.94;4116417;28;20545;-43
2022/01/30 06:09:57;;;;;;;1.70;0.90;;;;;;;16.56;30.84;101353.31;4116261;28;20035;-47
2022/01/30 06:11:58;;;;;;;1.75;1.05;;;;;;;16.55;30.60;101351.66;4116598;28;20073;-46
2022/01/30 06:14:00;;;;;;;1.45;0.85;;;;;;;16.56;30.65;101353.31;4116718;28;20047;-47
2022/01/30 06:16:01;;;;;;;1.65;0.75;;;;;;;16.51;30.78;101355.97;4116656;28;20042;-44
2022/01/30 06:18:03;;;;;;;1.83;0.90;;;;;;;16.52;30.63;101361.25;4116581;28;20042;-46
2022/01/30 06:20:05;;;;;;;0.75;0.75;;;;;;;16.53;31.00;101364.84;4115898;28;20094;-48
2022/01/30 06:22:06;;;;;;;2.78;0.80;;;;;;;16.53;30.91;101359.31;4116559;28;20026;-46
2022/01/30 06:24:07;;;;;;;1.20;0.93;;;;;;;16.52;31.00;101380.59;4116166;28;20043;-44
2022/01/30 06:26:09;;;;;;;1.10;0.90;;;;;;;16.52;30.97;101376.97;4116392;28;20038;-45
2022/01/30 06:28:13;;;;;;;1.25;0.90;;;;;;;16.50;30.85;101376.41;4116803;28;20038;-45
2022/01/30 06:30:14;;;;;;;1.33;0.80;;;;;;;16.50;30.59;101384.69;4116008;28;20046;-46
2022/01/30 06:32:16;;;;;;;1.10;0.70;;;;;;;16.45;30.96;101371.59;4116689;28;20098;-46
2022/01/30 06:34:20;;;;;;;0.88;0.68;;;;;;;16.49;30.69;101386.59;4116351;28;20039;-45
2022/01/30 06:36:21;;;;;;;1.58;0.93;;;;;;;16.51;30.78;101386.34;4116404;28;20101;-45
2022/01/30 06:38:23;;;;;;;1.27;0.80;;;;;;;16.49;30.78;101382.97;4115915;28;20438;-48
2022/01/30 06:40:25;;;;;;;1.17;0.75;;;;;;;16.48;31.06;101387.66;4115391;28;20181;-45
2022/01/30 06:42:29;;;;;;;1.10;0.75;;;;;;;16.47;30.78;101386.00;4116488;28;20047;-44
2022/01/30 06:44:31;;;;;;;1.63;0.98;;;;;;;16.46;30.92;101389.84;4116178;28;20050;-43
2022/01/30 06:46:33;;;;;;;1.40;0.95;;;;;;;16.40;31.13;101381.66;4116496;28;20043;-46
2022/01/30 06:48:34;;;;;;;1.50;0.80;;;;;;;16.47;30.81;101393.44;4116315;28;20035;-45
2022/01/30 06:50:39;;;;;;;1.02;0.88;;;;;;;16.45;30.88;101401.13;4115860;28;20102;-44
2022/01/30 06:52:40;;;;;;;1.27;0.90;;;;;;;16.43;30.83;101386.72;4116137;28;20082;-44
2022/01/30 06:54:42;;;;;;;2.95;0.80;;;;;;;16.45;31.05;101395.63;4115806;28;20042;-44
2022/01/30 06:56:43;;;;;;;1.30;0.85;;;;;;;16.44;31.17;101404.97;4114875;28;20446;-45
2022/01/30 06:58:45;;;;;;;1.13;0.70;;;;;;;16.44;30.71;101404.97;4116148;28;20051;-45
2022/01/30 07:00:46;;;;;;;1.45;0.80;;;;;;;16.43;31.06;101409.66;4115477;28;20042;-43
2022/01/30 07:02:50;;;;;;;1.85;1.13;;;;;;;16.43;30.90;101400.53;4116095;28;20071;-44
2022/01/30 07:04:52;;;;;;;2.75;0.93;;;;;;;16.42;30.83;101404.38;4115735;28;20034;-45
2022/01/30 07:06:54;;;;;;;1.13;0.80;;;;;;;16.37;30.72;101398.72;4116377;28;20121;-44
2022/01/30 07:08:56;;;;;;;0.82;0.60;;;;;;;16.39;31.18;101397.38;4115592;28;20482;-45
2022/01/30 07:10:57;;;;;;;1.27;0.93;;;;;;;16.38;31.20;101397.63;4116740;28;20103;-44
2022/01/30 07:13:02;;;;;;;1.20;0.90;;;;;;;16.40;30.94;101401.84;4116008;28;20097;-44
2022/01/30 07:15:03;;;;;;;1.83;0.80;;;;;;;16.40;30.79;101403.75;4115840;28;20035;-46
2022/01/30 07:17:04;;;;;;;0.85;0.60;;;;;;;16.40;30.96;101409.28;4115883;28;20106;-48
2022/01/30 07:19:06;;;;;;;0.82;0.70;;;;;;;16.40;31.10;101409.28;4115486;28;20172;-49
2022/01/30 07:21:09;;;;;;;1.38;0.70;;;;;;;16.36;30.90;101413.63;4115815;28;20038;-46
2022/01/30 07:23:11;;;;;;;0.90;0.73;;;;;;;16.37;30.96;101415.31;4115781;28;20082;-45
2022/01/30 07:25:12;;;;;;;1.15;0.60;;;;;;;16.35;31.21;101406.38;4115632;28;20085;-46
2022/01/30 07:27:13;;;;;;;1.67;0.90;;;;;;;16.35;30.98;101411.91;4116376;28;20043;-48
2022/01/30 07:29:15;;;;;;;1.00;0.90;;;;;;;16.33;31.34;101406.63;4114990;28;20054;-44
2022/01/30 07:31:16;;;;;;;1.38;1.05;;;;;;;16.34;31.18;101413.00;4115752;28;20550;-45
2022/01/30 07:33:18;;;;;;;1.95;0.75;;;;;;;16.33;30.99;101419.63;4115144;28;20051;-46
2022/01/30 07:35:19;;;;;;;1.33;0.80;;;;;;;16.32;30.88;101415.19;4115379;28;20043;-47
2022/01/30 07:37:21;;;;;;;1.70;0.70;;;;;;;16.31;31.06;101405.19;4115666;28;20105;-48
2022/01/30 07:39:26;;;;;;;1.08;0.77;;;;;;;16.30;30.91;101407.09;4115314;28;20105;-45
2022/01/30 07:41:28;;;;;;;1.38;0.70;;;;;;;16.30;31.08;101397.97;4115785;28;20089;-47
2022/01/30 07:43:32;;;;;;;1.48;0.80;;;;;;;16.29;30.85;101407.34;4115815;28;20093;-47
2022/01/30 07:45:33;;;;;;;1.23;0.70;;;;;;;16.23;30.95;101411.91;4113995;28;20046;-45
2022/01/30 07:47:35;;;;;;;0.52;0.50;;;;;;;16.27;31.31;101410.38;4115669;28;20105;-45
2022/01/30 07:49:36;;;;;;;1.25;0.70;;;;;;;16.22;31.15;101402.78;4115126;28;20047;-46
2022/01/30 07:51:38;;;;;;;1.30;0.70;;;;;;;16.22;30.97;101405.56;4115256;28;20043;-46
2022/01/30 07:53:39;;;;;;;1.23;0.77;;;;;;;16.24;31.02;101411.66;4118855;28;20471;-46
2022/01/30 07:55:40;;;;;;;0.93;0.70;;;;;;;16.20;30.89;101415.97;4118712;28;20446;-48
2022/01/30 07:57:42;;;;;;;1.10;0.88;;;;;;;16.25;31.32;101418.88;4118631;28;20039;-44
2022/01/30 07:59:43;;;;;;;1.13;0.70;;;;;;;16.22;30.95;101408.31;4117125;28;20509;-44
2022/01/30 08:01:46;;;;;;;1.00;0.80;;;;;;;16.22;31.01;101424.88;4118290;28;20050;-45
2022/01/30 08:03:48;;;;;;;0.95;0.60;;;;;;;16.20;30.87;101415.97;4119005;28;20113;-44
2022/01/30 08:05:52;;;;;;;1.65;0.90;;;;;;;16.20;30.92;101427.03;4118658;28;20035;-44
2022/01/30 08:07:53;;;;;;;0.90;0.60;;;;;;;16.20;30.79;101432.56;4119007;28;20035;-45
2022/01/30 08:09:54;;;;;;;1.20;0.80;;;;;;;16.19;30.86;101428.13;4118355;28;20051;-45
2022/01/30 08:11:56;;;;;;;1.13;1.02;;;;;;;16.17;30.78;101427.53;4118873;28;20470;-43
2022/01/30 08:13:57;;;;;;;0.80;0.70;;;;;;;16.13;31.13;101426.31;4118428;28;20407;-46
2022/01/30 08:15:59;;;;;;;0.85;0.60;;;;;;;16.12;30.71;101419.09;4118657;28;20113;-44
2022/01/30 08:18:00;;;;;;;1.48;0.70;;;;;;;16.17;31.03;101427.53;4118421;28;20494;-45
2022/01/30 08:20:05;;;;;;;1.45;0.90;;;;;;;16.16;30.94;101430.50;4117989;28;20094;-45
2022/01/30 08:22:07;;;;;;;2.00;1.00;;;;;;;16.15;30.89;101434.34;4118417;28;20031;-46
2022/01/30 08:24:08;;;;;;;2.40;0.98;;;;;;;16.14;30.98;101438.19;4118222;28;20459;-43
2022/01/30 08:26:10;;;;;;;1.20;0.80;;;;;;;16.13;30.79;101442.88;4118174;28;20064;-45
2022/01/30 08:28:11;;;;;;;1.77;0.77;;;;;;;16.14;30.98;101444.56;4116972;28;20513;-45
2022/01/30 08:30:16;;;;;;;1.15;0.75;;;;;;;16.13;30.92;101442.88;4117674;28;20125;-48
2022/01/30 08:32:20;;;;;;;0.95;0.63;;;;;;;16.13;30.74;101447.56;4118039;28;20043;-45
2022/01/30 08:34:21;;;;;;;0.82;0.73;;;;;;;16.11;31.02;101450.53;4118074;28;20190;-44
2022/01/30 08:36:23;;;;;;;1.65;0.95;;;;;;;16.04;30.85;101438.78;4118099;28;20035;-46
2022/01/30 08:38:24;;;;;;;1.48;0.90;;;;;;;16.10;30.52;101448.88;4118143;28;20106;-45
2022/01/30 08:40:27;;;;;;;1.55;0.70;;;;;;;16.11;30.81;101442.25;4117787;28;20042;-45
2022/01/30 08:42:28;;;;;;;1.02;0.90;;;;;;;16.10;30.73;101446.09;4117993;28;20175;-45
2022/01/30 08:44:30;;;;;;;1.80;0.95;;;;;;;16.09;30.60;101449.09;4117971;28;20038;-45
2022/01/30 08:46:31;;;;;;;1.00;0.70;;;;;;;16.06;30.70;101450.41;4118037;28;20047;-46
2022/01/30 08:48:33;;;;;;;1.55;0.80;;;;;;;16.06;31.08;101458.69;4118021;28;20089;-44
2022/01/30 08:50:35;;;;;;;1.75;0.80;;;;;;;16.07;30.83;101465.88;4117855;28;20154;-45
2022/01/30 08:52:37;;;;;;;1.13;0.70;;;;;;;16.03;30.76;101464.66;4117870;28;20043;-43
2022/01/30 08:54:38;;;;;;;0.80;0.70;;;;;;;16.05;30.78;101484.63;4118053;28;20595;-43
2022/01/30 08:56:40;;;;;;;1.38;1.08;;;;;;;16.05;30.83;101473.56;4118011;28;20098;-45
2022/01/30 08:58:41;;;;;;;1.20;0.70;;;;;;;16.06;30.94;101485.47;4118324;28;20038;-45
2022/01/30 09:00:44;;;;;;;1.75;0.80;;;;;;;16.03;30.61;101478.47;4117888;28;20047;-46
2022/01/30 09:02:46;;;;;;;1.45;0.80;;;;;;;16.04;30.80;101485.72;4117350;28;20043;-47
2022/01/30 09:04:47;;;;;;;0.95;0.80;;;;;;;16.04;30.48;101488.47;4117643;28;20042;-47
2022/01/30 09:06:51;;;;;;;1.33;0.70;;;;;;;16.02;30.44;101479.56;4117727;28;20426;-45
2022/01/30 09:08:52;;;;;;;1.70;0.82;;;;;;;15.97;30.55;101471.16;4116185;28;20046;-46
2022/01/30 09:10:54;;;;;;;1.95;0.90;;;;;;;15.94;30.82;101482.66;4117353;28;20046;-45
2022/01/30 09:12:56;;;;;;;0.70;0.70;;;;;;;15.90;30.94;101476.78;4117610;28;20109;-44
2022/01/30 09:14:57;;;;;;;0.77;0.68;;;;;;;15.86;31.10;101481.06;4117497;28;20047;-47
2022/01/30 09:16:59;;;;;;;1.33;0.80;;;;;;;15.88;31.16;101473.38;4117531;28;20046;-45
2022/01/30 09:19:00;;;;;;;0.68;0.68;;;;;;;15.87;31.34;101471.72;4117325;28;20038;-46
2022/01/30 09:21:02;;;;;;;1.33;0.77;;;;;;;15.89;31.17;101474.22;4117465;28;20046;-43
2022/01/30 09:23:03;;;;;;;1.02;0.80;;;;;;;15.90;31.58;101481.47;4117509;28;20043;-45
2022/01/30 09:25:09;;;;;;;1.15;0.95;;;;;;;15.91;31.02;101477.63;4117316;28;20089;-46
2022/01/30 09:27:10;;;;;;;1.45;0.93;;;;;;;15.92;31.01;101479.28;4117584;28;20027;-45
2022/01/30 09:29:14;;;;;;;2.13;0.98;;;;;;;15.93;30.95;101484.56;4117018;28;20046;-44
2022/01/30 09:31:16;;;;;;;1.25;0.90;;;;;;;15.90;31.15;101473.19;4117219;28;20097;-44
2022/01/30 09:33:17;;;;;;;1.95;0.73;;;;;;;15.96;30.91;101480.50;4117211;28;20430;-44
2022/01/30 09:35:19;;;;;;;0.70;0.50;;;;;;;15.98;30.95;101483.88;4117397;28;20030;-46
2022/01/30 09:37:20;;;;;;;1.05;0.80;;;;;;;15.97;31.08;101482.19;4117352;28;20128;-45
2022/01/30 09:39:23;;;;;;;1.10;0.60;;;;;;;16.01;30.96;101483.41;4116851;28;20043;-48
2022/01/30 09:41:25;;;;;;;1.45;0.75;;;;;;;16.02;30.74;101485.91;4117168;28;20442;-46
2022/01/30 09:43:33;;;;;;;1.25;0.80;;;;;;;16.05;30.83;101495.66;4117092;28;20046;-45
2022/01/30 09:45:35;;;;;;;0.95;0.70;;;;;;;16.09;30.59;101494.13;4117303;28;20102;-44
2022/01/30 09:47:37;;;;;;;1.10;0.70;;;;;;;16.10;30.73;101487.50;4117143;28;20093;-47
2022/01/30 09:49:40;;;;;;;1.75;0.70;;;;;;;16.13;31.01;101498.09;4117024;28;20047;-48
2022/01/30 09:51:45;;;;;;;0.63;0.60;;;;;;;16.13;30.95;101491.75;4116980;28;20042;-44
2022/01/30 09:53:48;;;;;;;0.63;0.57;;;;;;;16.17;30.61;101499.31;4117091;28;20055;-45
2022/01/30 09:55:49;;;;;;;0.70;0.60;;;;;;;16.21;30.46;101506.03;4117165;28;20478;-46
2022/01/30 09:57:52;;;;;;;2.63;1.00;;;;;;;16.22;30.62;101501.38;4116922;28;20098;-46
2022/01/30 09:59:55;;;;;;;1.20;0.90;;;;;;;16.23;30.63;101506.66;4115120;28;20101;-44
2022/01/30 10:01:57;;;;;;;1.63;0.70;;;;;;;16.22;30.18;101504.97;4116968;28;20042;-46
2022/01/30 10:03:59;;;;;;;0.98;0.60;;;;;;;16.24;30.28;101510.25;4116828;28;20541;-44
2022/01/30 10:06:07;;;;;;;0.75;0.65;;;;;;;16.25;30.56;101512.75;4116915;28;20053;-46
2022/01/30 10:08:26;;;;;;;1.00;0.70;;;;;;;16.22;30.25;101507.72;4116695;28;20047;-47
2022/01/30 10:10:29;;;;;;;1.30;0.93;;;;;;;16.25;30.46;101507.25;4116416;28;20042;-45
2022/01/30 10:12:31;;;;;;;1.27;0.70;;;;;;;16.25;30.24;101507.25;4116928;28;20117;-44
2022/01/30 10:14:32;;;;;;;1.35;0.70;;;;;;;16.27;30.04;101516.16;4115971;28;20376;-45
2022/01/30 10:16:50;;;;;;;1.55;0.88;;;;;;;16.24;30.28;101530.41;4116590;28;20047;-45
2022/01/30 10:18:52;;;;;;;2.75;0.80;;;;;;;16.26;30.34;101536.56;4116645;28;20109;-46
2022/01/30 10:20:54;;;;;;;1.15;0.90;;;;;;;16.26;30.20;101536.56;4116325;28;20043;-45
2022/01/30 10:22:59;;;;;;;1.20;1.10;;;;;;;16.24;30.30;101537.88;4115182;28;20043;-42
2022/01/30 10:25:01;;;;;;;1.58;1.02;;;;;;;16.22;30.45;101537.28;4116483;28;20042;-51